Time;durP1;ratioP1;P1;durP2;ratioP2;P2;SDS_P1;SDS_P2;PMS_P1;PMS_P2;Temp;Humidity;BMP_temperature;BMP_pressure;BME280_temperature;BME280_humidity;BME280_pressure;Samples;Min_cycle;Max_cycle;Signal;HPM_P1;HPM_P2
2023/04/13 00:00:46;;;;;;;2.97;1.17;;;;;;;5.73;94.01;99378.66;5017199;28;20043;-81
2023/04/13 00:03:15;;;;;;;5.18;1.20;;;;;;;5.72;94.83;99383.97;5017530;28;20377;-80
2023/04/13 00:05:41;;;;;;;2.58;1.25;;;;;;;5.76;94.19;99382.97;5016727;28;20034;-79
2023/04/13 00:08:11;;;;;;;4.43;1.33;;;;;;;5.65;95.48;99377.16;4999584;28;20022;-80
2023/04/13 00:10:53;;;;;;;2.75;1.17;;;;;;;5.89;92.84;99378.28;4997829;28;20046;-81
2023/04/13 00:13:18;;;;;;;3.90;1.65;;;;;;;5.74;95.18;99367.28;4999561;28;20044;-80
2023/04/13 00:15:45;;;;;;;3.03;1.27;;;;;;;5.71;96.04;99366.47;5015076;28;20034;-80
2023/04/13 00:18:11;;;;;;;4.13;1.00;;;;;;;5.60;96.73;99369.38;4998492;28;20045;-80
2023/04/13 00:20:37;;;;;;;6.75;1.63;;;;;;;5.60;96.95;99359.72;5014815;28;20101;-79
2023/04/13 00:31:12;;;;;;;3.08;1.35;;;;;;;5.72;96.98;99368.22;5378819;23;20053;31
2023/04/13 00:34:10;;;;;;;3.63;1.35;;;;;;;5.83;96.22;99363.53;5522294;23;20145;-72
2023/04/13 00:36:36;;;;;;;1.83;1.00;;;;;;;5.69;98.21;99363.03;5535207;23;20050;-72
2023/04/13 00:42:17;;;;;;;6.22;1.75;;;;;;;5.73;98.75;99368.16;4891431;29;20060;-80
2023/04/13 00:44:43;;;;;;;4.55;1.42;;;;;;;5.64;100.00;99364.91;4884131;29;20049;-79
2023/04/13 00:47:08;;;;;;;1.27;0.88;;;;;;;5.71;100.00;99364.72;4897409;29;20088;-79
2023/04/13 00:49:34;;;;;;;3.20;1.40;;;;;;;5.80;99.98;99361.84;4892478;29;20108;-79
2023/04/13 00:52:04;;;;;;;6.60;1.40;;;;;;;5.79;100.00;99347.00;4898372;29;20044;-78
2023/04/13 00:54:31;;;;;;;2.05;1.05;;;;;;;5.87;100.00;99359.06;4899558;29;20104;-79
2023/04/13 00:56:58;;;;;;;5.45;1.88;;;;;;;5.79;100.00;99364.53;4897002;29;20178;-79
2023/04/13 00:59:28;;;;;;;4.50;1.40;;;;;;;5.75;100.00;99368.13;4912536;29;20044;-78
2023/04/13 01:02:00;;;;;;;3.15;1.38;;;;;;;5.80;100.00;99367.09;4898534;29;20052;-79
2023/04/13 01:04:29;;;;;;;3.92;1.20;;;;;;;5.82;100.00;99348.69;4898145;29;20119;-80
2023/04/13 01:07:26;;;;;;;4.35;1.30;;;;;;;5.81;100.00;99360.06;4881731;29;20039;-80
2023/04/13 01:10:04;;;;;;;1.23;0.90;;;;;;;5.88;100.00;99356.38;4885553;29;20044;-79
2023/04/13 01:12:48;;;;;;;5.80;1.30;;;;;;;5.81;100.00;99354.81;4911256;29;20538;-79
2023/04/13 01:15:17;;;;;;;3.95;1.27;;;;;;;5.85;100.00;99353.84;4908745;29;20025;-80
2023/04/13 01:17:51;;;;;;;5.00;1.73;;;;;;;5.83;100.00;99353.03;4909232;29;20488;-79
2023/04/13 01:20:23;;;;;;;4.32;1.15;;;;;;;5.80;100.00;99358.34;4921580;29;20504;-79
2023/04/13 01:23:00;;;;;;;3.67;1.30;;;;;;;5.82;100.00;99359.19;4919503;29;20041;-80
2023/04/13 01:25:49;;;;;;;4.55;1.48;;;;;;;5.91;100.00;99352.81;4908431;29;20037;-79
2023/04/13 01:28:18;;;;;;;3.55;1.20;;;;;;;5.88;100.00;99350.28;4903700;29;20032;-80
2023/04/13 01:30:49;;;;;;;5.55;1.42;;;;;;;5.85;100.00;99353.00;4912170;29;20036;-79
2023/04/13 01:33:15;;;;;;;5.20;1.50;;;;;;;5.94;100.00;99351.00;4898175;29;20037;-80
2023/04/13 01:35:42;;;;;;;6.78;1.55;;;;;;;5.88;100.00;99347.66;4911987;29;20036;-80
2023/04/13 01:38:13;;;;;;;7.93;1.65;;;;;;;5.86;100.00;99363.47;4866922;29;20105;-79
2023/04/13 01:40:43;;;;;;;7.75;2.00;;;;;;;5.93;100.00;99370.25;4896169;29;20044;-81
2023/04/13 01:43:10;;;;;;;;;;;;;;;5.95;100.00;99388.66;4880267;29;20040;-80
2023/04/13 01:46:00;;;;;;;6.05;1.95;;;;;;;5.94;100.00;99394.81;4866384;29;19919;-81
2023/04/13 01:48:37;;;;;;;5.63;1.63;;;;;;;5.90;100.00;99401.03;4895564;29;20037;-81
2023/04/13 01:51:21;;;;;;;2.90;1.45;;;;;;;5.87;100.00;99416.88;4896213;29;20112;-81
2023/04/13 01:53:54;;;;;;;6.63;1.98;;;;;;;5.85;100.00;99405.53;4881174;29;20028;-81
2023/04/13 01:56:21;;;;;;;7.93;2.20;;;;;;;5.90;100.00;99406.28;4880459;29;20093;-81
2023/04/13 01:58:55;;;;;;;3.47;1.70;;;;;;;5.90;100.00;99401.88;4896036;29;20096;-81
2023/04/13 02:01:20;;;;;;;6.83;2.20;;;;;;;5.90;100.00;99409.75;4895584;29;20123;-80
2023/04/13 02:03:47;;;;;;;5.22;1.52;;;;;;;5.83;100.00;99416.06;4880336;29;20036;-81
2023/04/13 02:06:13;;;;;;;7.90;1.40;;;;;;;5.79;100.00;99428.44;4895462;29;20129;-80
2023/04/13 02:08:41;;;;;;;4.85;1.60;;;;;;;5.84;100.00;99428.31;4880274;29;20063;-81
2023/04/13 02:11:09;;;;;;;6.97;1.73;;;;;;;5.81;100.00;99423.13;4864843;29;20033;-81
2023/04/13 02:13:35;;;;;;;7.65;1.70;;;;;;;5.84;100.00;99427.47;4897011;29;20119;-81
2023/04/13 02:16:02;;;;;;;6.93;1.77;;;;;;;5.77;100.00;99439.88;4880186;29;20056;-81
2023/04/13 02:18:27;;;;;;;9.98;2.00;;;;;;;5.78;100.00;99444.22;4880170;29;20028;-80
2023/04/13 02:21:12;;;;;;;6.70;2.20;;;;;;;5.82;100.00;99440.63;4895781;29;20479;-80
2023/04/13 02:23:40;;;;;;;9.05;1.98;;;;;;;5.85;100.00;99447.56;4898809;29;20068;-80
2023/04/13 02:26:07;;;;;;;7.03;1.92;;;;;;;5.84;100.00;99470.34;4905652;29;20044;-80
2023/04/13 02:28:33;;;;;;;8.15;1.80;;;;;;;5.79;100.00;99459.97;4897516;29;20037;-79
2023/04/13 02:30:59;;;;;;;8.13;2.35;;;;;;;5.83;100.00;99471.22;4898785;29;20029;-80
2023/04/13 02:33:30;;;;;;;8.40;2.28;;;;;;;5.84;100.00;99466.88;4880021;29;20036;-81
2023/04/13 02:35:56;;;;;;;9.60;2.97;;;;;;;5.87;100.00;99478.16;4895352;29;20059;-80
2023/04/13 02:38:22;;;;;;;9.32;2.45;;;;;;;5.85;100.00;99484.34;4879439;29;20024;-81
2023/04/13 02:40:56;;;;;;;7.72;2.50;;;;;;;5.84;100.00;99498.41;4894408;29;20060;-81
2023/04/13 02:43:22;;;;;;;6.75;2.05;;;;;;;5.82;100.00;99494.03;4900262;29;20424;-80
2023/04/13 02:45:48;;;;;;;3.90;1.85;;;;;;;5.85;100.00;99500.09;4898139;29;20131;-80
2023/04/13 02:48:15;;;;;;;8.32;1.95;;;;;;;5.82;100.00;99496.66;4894356;29;20052;-80
2023/04/13 02:50:40;;;;;;;4.60;1.90;;;;;;;5.84;100.00;99499.25;4897003;29;20040;-81
2023/04/13 02:53:10;;;;;;;3.00;1.73;;;;;;;5.78;100.00;99502.88;4895847;29;20096;-81
2023/04/13 02:55:39;;;;;;;5.60;1.90;;;;;;;5.79;100.00;99511.63;4895673;29;20487;-81
2023/04/13 02:58:09;;;;;;;4.13;1.83;;;;;;;5.76;100.00;99512.56;4880559;29;20048;-81
2023/04/13 03:00:36;;;;;;;4.32;1.73;;;;;;;5.69;100.00;99513.63;4881113;29;20040;-81
2023/04/13 03:03:07;;;;;;;5.57;1.83;;;;;;;5.69;100.00;99518.00;4885019;29;20032;-80
2023/04/13 03:05:39;;;;;;;5.18;1.98;;;;;;;5.67;100.00;99517.19;4896149;29;20465;-81
2023/04/13 03:08:09;;;;;;;7.13;2.15;;;;;;;5.65;100.00;99513.72;4864329;29;20052;-80
2023/04/13 03:10:37;;;;;;;6.65;2.00;;;;;;;5.65;100.00;99517.19;4877775;29;20096;-81
2023/04/13 03:13:04;;;;;;;5.55;1.98;;;;;;;5.61;100.00;99520.78;4875677;29;20033;-81
2023/04/13 03:15:30;;;;;;;3.55;1.80;;;;;;;5.60;100.00;99534.81;4881243;29;20048;-81
2023/04/13 03:17:58;;;;;;;6.78;1.80;;;;;;;5.61;100.00;99544.41;4898311;29;20040;-82
2023/04/13 03:20:27;;;;;;;6.90;1.90;;;;;;;5.64;100.00;99543.47;4899103;29;20047;-81
2023/04/13 03:22:57;;;;;;;4.33;1.83;;;;;;;5.63;100.00;99544.41;4897396;29;20811;-81
2023/04/13 03:25:23;;;;;;;3.95;1.95;;;;;;;5.63;100.00;99554.91;4898965;29;20044;-82
2023/04/13 03:27:50;;;;;;;5.55;1.90;;;;;;;5.59;100.00;99552.34;4896352;29;20063;-81
2023/04/13 03:30:17;;;;;;;7.97;2.20;;;;;;;5.59;100.00;99567.25;4862070;29;20039;-81
2023/04/13 03:32:51;;;;;;;3.90;1.77;;;;;;;5.61;100.00;99565.44;4892857;29;20102;-81
2023/04/13 03:35:19;;;;;;;7.55;2.40;;;;;;;5.53;100.00;99570.84;4885578;29;20062;-81
2023/04/13 03:37:45;;;;;;;8.23;2.55;;;;;;;5.55;100.00;99576.09;4878893;29;20047;-82
2023/04/13 03:40:26;;;;;;;4.80;2.28;;;;;;;5.54;100.00;99582.25;4892441;29;20081;-82
2023/04/13 03:42:52;;;;;;;6.30;2.50;;;;;;;5.52;100.00;99584.03;4894824;29;20044;-82
2023/04/13 03:45:21;;;;;;;4.72;2.88;;;;;;;5.50;100.00;99583.19;4864434;29;20041;-82
2023/04/13 03:47:47;;;;;;;8.45;3.00;;;;;;;5.46;100.00;99585.00;4894625;29;20504;-82
2023/04/13 03:50:13;;;;;;;5.88;3.25;;;;;;;5.43;100.00;99592.94;4898712;29;20071;-82
2023/04/13 03:52:39;;;;;;;6.22;3.20;;;;;;;5.38;100.00;99605.31;4875180;29;20045;-82
2023/04/13 03:55:05;;;;;;;7.65;3.45;;;;;;;5.37;100.00;99601.84;4898408;29;20498;-82
2023/04/13 03:57:33;;;;;;;11.50;3.90;;;;;;;5.32;100.00;99594.94;4870190;29;20605;-81
2023/04/13 04:00:01;;;;;;;10.15;3.78;;;;;;;5.32;100.00;99601.06;4898273;29;20052;-82
2023/04/13 04:02:45;;;;;;;7.32;4.10;;;;;;;5.32;100.00;99608.06;4894866;29;20039;-82
2023/04/13 04:05:16;;;;;;;10.45;4.22;;;;;;;5.32;100.00;99621.22;4880937;29;20041;-82
2023/04/13 04:07:44;;;;;;;9.80;4.88;;;;;;;5.33;100.00;99617.66;4885836;29;20465;-81
2023/04/13 04:10:10;;;;;;;17.17;5.47;;;;;;;5.35;100.00;99615.88;4902192;29;20036;-81
2023/04/13 04:12:35;;;;;;;11.00;4.07;;;;;;;5.32;100.00;99610.69;4895608;29;20025;-82
2023/04/13 04:15:01;;;;;;;11.95;4.57;;;;;;;5.37;100.00;99627.22;4903155;29;20032;-82
2023/04/13 04:17:30;;;;;;;8.80;5.20;;;;;;;5.32;100.00;99632.56;4905638;29;20048;-82
2023/04/13 04:19:56;;;;;;;14.27;5.45;;;;;;;5.37;100.00;99643.84;4897476;29;20040;-80
2023/04/13 04:22:28;;;;;;;12.57;5.57;;;;;;;5.42;100.00;99642.88;4898359;29;20048;-82
2023/04/13 04:24:57;;;;;;;9.70;4.43;;;;;;;5.45;100.00;99642.81;4898651;29;20376;-82
2023/04/13 04:27:25;;;;;;;9.13;4.95;;;;;;;5.46;100.00;99647.16;4898213;29;20055;-82
2023/04/13 04:29:57;;;;;;;8.45;4.72;;;;;;;5.43;100.00;99647.22;4898349;29;20040;-82
2023/04/13 04:32:27;;;;;;;10.32;4.85;;;;;;;5.44;100.00;99655.09;4898249;29;20036;-82
2023/04/13 04:34:54;;;;;;;16.15;5.93;;;;;;;5.45;100.00;99654.19;4882637;29;20092;-81
2023/04/13 04:37:24;;;;;;;12.38;4.75;;;;;;;5.44;100.00;99660.34;4897730;29;20464;-82
2023/04/13 04:40:09;;;;;;;11.38;4.63;;;;;;;5.40;100.00;99663.91;4884427;29;20040;-82
2023/04/13 04:42:36;;;;;;;16.10;5.05;;;;;;;5.36;100.00;99672.72;4896528;29;20045;-82
2023/04/13 04:45:05;;;;;;;9.35;4.40;;;;;;;5.36;100.00;99677.97;4897741;29;20421;-80
2023/04/13 04:47:40;;;;;;;13.23;4.45;;;;;;;5.34;100.00;99679.75;4897108;29;20048;-81
2023/04/13 04:50:16;;;;;;;16.10;4.10;;;;;;;5.33;100.00;99676.28;4864662;29;20511;-81
2023/04/13 04:52:44;;;;;;;9.73;4.32;;;;;;;5.33;100.00;99683.31;4875721;29;20036;-82
2023/04/13 04:55:13;;;;;;;7.15;3.67;;;;;;;5.31;100.00;99685.09;4882544;29;20494;-82
2023/04/13 04:57:40;;;;;;;6.82;4.07;;;;;;;5.29;100.00;99693.00;4881922;29;20089;-82
2023/04/13 05:00:14;;;;;;;13.90;3.95;;;;;;;5.36;100.00;99691.09;4866418;29;20132;-81
2023/04/13 05:02:41;;;;;;;9.95;3.88;;;;;;;5.35;100.00;99692.88;4900635;29;20526;-82
2023/04/13 05:05:10;;;;;;;6.50;3.55;;;;;;;5.34;100.00;99693.78;4881705;29;20047;-82
2023/04/13 05:07:37;;;;;;;7.45;3.70;;;;;;;5.34;100.00;99706.03;4897289;29;20044;-82
2023/04/13 05:10:06;;;;;;;6.90;3.35;;;;;;;5.37;100.00;99704.22;4875011;29;20041;-80
2023/04/13 05:12:32;;;;;;;15.55;5.53;;;;;;;5.36;100.00;99702.47;4897115;29;20504;-82
2023/04/13 05:15:00;;;;;;;9.27;4.63;;;;;;;5.35;100.00;99689.38;4891206;29;20371;-82
2023/04/13 05:17:26;;;;;;;9.48;4.75;;;;;;;5.42;100.00;99703.28;4897074;29;20032;-81
2023/04/13 05:19:52;;;;;;;8.23;4.75;;;;;;;5.41;100.00;99704.16;4891095;29;20116;-82
2023/04/13 05:22:36;;;;;;;16.83;5.20;;;;;;;5.43;100.00;99703.22;4896926;29;20052;-82
2023/04/13 05:25:05;;;;;;;10.23;4.47;;;;;;;5.44;100.00;99706.72;4873386;29;20508;-82
2023/04/13 05:27:31;;;;;;;11.18;5.15;;;;;;;5.47;100.00;99717.19;4881136;29;20036;-81
2023/04/13 05:29:57;;;;;;;9.38;4.70;;;;;;;5.46;100.00;99724.16;4897288;29;20479;-81
2023/04/13 05:32:24;;;;;;;9.75;4.70;;;;;;;5.48;100.00;99726.78;4896794;29;20085;-82
2023/04/13 05:34:52;;;;;;;14.20;5.25;;;;;;;5.48;100.00;99718.91;4896958;29;20184;-81
2023/04/13 05:37:21;;;;;;;11.48;4.75;;;;;;;5.57;100.00;99727.47;4896758;29;20093;-80
2023/04/13 05:39:47;;;;;;;10.55;5.10;;;;;;;5.56;100.00;99732.75;4898165;29;20036;-79
2023/04/13 05:42:15;;;;;;;10.25;4.70;;;;;;;5.56;100.00;99733.63;4895836;29;20067;-79
2023/04/13 05:44:43;;;;;;;11.55;4.47;;;;;;;5.64;100.00;99735.22;4896480;29;20052;-78
2023/04/13 05:47:10;;;;;;;8.65;3.55;;;;;;;5.67;100.00;99737.81;4890518;29;20175;-80
2023/04/13 05:49:37;;;;;;;13.10;4.50;;;;;;;5.65;100.00;99735.19;4896079;29;20575;-81
2023/04/13 05:52:05;;;;;;;10.25;3.90;;;;;;;5.73;100.00;99742.91;4902613;29;20036;-81
2023/04/13 05:54:46;;;;;;;8.85;4.07;;;;;;;5.72;100.00;99749.09;4904023;29;20056;-80
2023/04/13 05:57:11;;;;;;;7.60;3.92;;;;;;;5.77;100.00;99749.84;4896735;29;20041;-80
2023/04/13 05:59:43;;;;;;;9.60;3.38;;;;;;;5.84;100.00;99758.50;4897518;29;20089;-81
2023/04/13 06:02:09;;;;;;;10.35;3.80;;;;;;;5.84;100.00;99756.72;4896437;29;20064;-80
2023/04/13 06:04:35;;;;;;;8.07;3.58;;;;;;;5.79;100.00;99771.72;4899286;29;20400;-80
2023/04/13 06:07:00;;;;;;;7.53;2.85;;;;;;;5.84;100.00;99775.13;4895625;29;20139;-80
2023/04/13 06:09:27;;;;;;;9.77;3.03;;;;;;;5.80;100.00;99776.06;4897468;29;20048;-79
2023/04/13 06:11:53;;;;;;;6.80;3.03;;;;;;;5.78;100.00;99777.84;4897586;29;20040;-80
2023/04/13 06:14:19;;;;;;;7.22;3.60;;;;;;;5.82;100.00;99787.41;4896233;29;20051;-80
2023/04/13 06:16:45;;;;;;;12.45;3.22;;;;;;;5.77;100.00;99797.16;4862320;29;20040;-80
2023/04/13 06:19:12;;;;;;;7.65;2.90;;;;;;;5.80;100.00;99802.34;4896573;29;20020;-80
2023/04/13 06:21:37;;;;;;;8.15;3.35;;;;;;;5.82;100.00;99805.81;4870449;29;20093;-80
2023/04/13 06:24:03;;;;;;;9.25;2.80;;;;;;;5.81;100.00;99812.81;4893873;29;20088;-80
2023/04/13 06:26:35;;;;;;;9.30;2.88;;;;;;;5.85;100.00;99813.63;4891390;29;20056;-79
2023/04/13 06:29:01;;;;;;;5.43;2.85;;;;;;;5.89;100.00;99824.97;4905598;29;20096;-81
2023/04/13 06:31:30;;;;;;;5.97;2.55;;;;;;;5.93;100.00;99821.34;4880457;29;20461;-81
2023/04/13 06:34:03;;;;;;;11.88;3.25;;;;;;;5.93;100.00;99822.22;4895877;29;20033;-81
2023/04/13 06:36:33;;;;;;;10.90;3.83;;;;;;;5.87;100.00;99818.84;4894819;29;20472;-83
2023/04/13 06:39:01;;;;;;;8.32;3.30;;;;;;;5.91;100.00;99825.75;4895359;29;20135;-82
2023/04/13 06:41:27;;;;;;;7.65;3.70;;;;;;;5.85;100.00;99825.91;4894486;29;20127;-82
2023/04/13 06:44:10;;;;;;;14.95;3.65;;;;;;;5.91;100.00;99837.16;4881813;29;20121;-81
2023/04/13 06:46:45;;;;;;;8.77;3.03;;;;;;;5.89;100.00;99830.22;4895392;29;20079;-82
2023/04/13 06:49:12;;;;;;;10.38;3.30;;;;;;;5.91;100.00;99846.78;4880054;29;20135;-83
2023/04/13 06:51:40;;;;;;;9.55;3.40;;;;;;;5.94;100.00;99842.38;4879709;29;20047;-82
2023/04/13 06:54:06;;;;;;;9.65;3.55;;;;;;;5.97;100.00;99847.59;4895435;29;20028;-83
2023/04/13 06:56:36;;;;;;;7.93;3.47;;;;;;;5.93;100.00;99848.50;4897606;29;20055;-82
2023/04/13 06:59:01;;;;;;;9.20;4.85;;;;;;;5.98;100.00;99859.84;4894732;29;20032;-83
2023/04/13 07:01:27;;;;;;;7.18;2.88;;;;;;;6.02;100.00;99850.13;4890795;29;20041;-82
2023/04/13 07:03:53;;;;;;;10.00;3.70;;;;;;;6.08;100.00;99859.66;4897615;29;20044;-82
2023/04/13 07:06:21;;;;;;;10.07;3.13;;;;;;;6.10;100.00;99860.50;4896991;29;20055;-82
2023/04/13 07:08:46;;;;;;;12.45;3.63;;;;;;;6.12;100.00;99867.44;4896217;29;20044;-82
2023/04/13 07:11:13;;;;;;;13.30;3.58;;;;;;;6.13;100.00;99871.81;4908957;29;20041;-81
2023/04/13 07:13:39;;;;;;;8.23;2.92;;;;;;;6.16;100.00;99884.03;4912429;29;20061;-83
2023/04/13 07:16:08;;;;;;;12.35;3.13;;;;;;;6.21;100.00;99877.78;4901126;29;20041;-82
2023/04/13 07:18:36;;;;;;;10.35;3.70;;;;;;;6.28;100.00;99890.81;4880488;29;20036;-82
2023/04/13 07:21:02;;;;;;;9.70;3.25;;;;;;;6.32;100.00;99893.34;4895172;29;20486;-83
2023/04/13 07:23:34;;;;;;;9.32;3.20;;;;;;;6.38;100.00;99892.34;4890928;29;20048;-82
2023/04/13 07:26:00;;;;;;;17.02;3.42;;;;;;;6.41;100.00;99900.22;4895123;29;20056;-80
2023/04/13 07:28:28;;;;;;;10.88;3.47;;;;;;;6.46;100.00;99887.81;4890908;29;20106;-82
2023/04/13 07:30:56;;;;;;;10.60;3.63;;;;;;;6.63;100.00;99905.91;4886525;29;20137;-82
2023/04/13 07:33:22;;;;;;;11.13;3.20;;;;;;;6.61;100.00;99905.91;4880170;29;20033;-81
2023/04/13 07:35:53;;;;;;;8.82;3.00;;;;;;;6.67;100.00;99913.66;4892273;29;20057;-81
2023/04/13 07:38:20;;;;;;;10.48;3.28;;;;;;;6.72;100.00;99923.25;4895033;29;20036;-80
2023/04/13 07:40:47;;;;;;;10.70;3.78;;;;;;;6.76;100.00;99920.53;4894228;29;20091;-81
2023/04/13 07:43:15;;;;;;;12.80;3.58;;;;;;;6.77;100.00;99918.75;4870214;29;20029;-81
2023/04/13 07:45:43;;;;;;;18.48;4.82;;;;;;;6.84;100.00;99934.38;4886474;29;20059;-80
2023/04/13 07:48:09;;;;;;;15.43;4.05;;;;;;;6.87;100.00;99936.97;4896605;29;20040;-81
2023/04/13 07:50:42;;;;;;;8.93;3.30;;;;;;;6.98;100.00;99938.50;4896203;29;20500;-82
2023/04/13 07:53:11;;;;;;;13.88;3.60;;;;;;;7.02;100.00;99948.03;4898524;29;20373;-83
2023/04/13 07:55:37;;;;;;;13.15;3.40;;;;;;;7.04;100.00;99943.63;4883428;29;20475;-81
2023/04/13 07:58:04;;;;;;;11.05;3.03;;;;;;;7.11;100.00;99943.44;4890360;29;20045;-81
2023/04/13 08:00:30;;;;;;;11.65;3.25;;;;;;;7.18;100.00;99945.97;4894561;29;20136;-81
2023/04/13 08:03:00;;;;;;;9.82;3.50;;;;;;;7.17;100.00;99946.84;4898722;29;20119;-80
2023/04/13 08:05:28;;;;;;;15.57;3.67;;;;;;;7.23;100.00;99952.84;4886867;29;20504;-81
2023/04/13 08:07:53;;;;;;;12.93;3.58;;;;;;;7.32;98.73;99955.28;4915846;29;20044;-82
2023/04/13 08:10:19;;;;;;;10.55;3.10;;;;;;;7.34;99.53;99960.50;4901968;29;20047;-82
2023/04/13 08:12:45;;;;;;;20.15;3.72;;;;;;;7.42;98.00;99976.13;4872672;29;20047;-81
2023/04/13 08:15:14;;;;;;;11.82;2.65;;;;;;;7.41;99.36;99970.00;4886640;29;20115;-83
2023/04/13 08:17:41;;;;;;;13.07;3.08;;;;;;;7.53;96.17;99987.28;4901245;29;20134;-81
2023/04/13 08:20:07;;;;;;;18.60;3.80;;;;;;;7.51;95.93;99997.00;4886168;29;20450;-81
2023/04/13 08:22:33;;;;;;;13.75;2.70;;;;;;;7.60;96.25;99993.28;4885971;29;20047;-82
2023/04/13 08:25:00;;;;;;;18.35;2.90;;;;;;;7.52;95.15;99994.34;4901720;29;20076;-81
2023/04/13 08:27:27;;;;;;;17.35;3.22;;;;;;;7.53;95.37;99995.19;4901810;29;20406;-82
2023/04/13 08:29:59;;;;;;;11.88;2.65;;;;;;;7.52;94.86;100010.16;4918243;29;20028;-81
2023/04/13 08:32:25;;;;;;;17.30;3.40;;;;;;;7.62;94.01;100009.94;4901424;29;20530;-82
2023/04/13 08:34:51;;;;;;;10.02;2.90;;;;;;;7.57;94.25;100003.88;4897419;29;20076;-81
2023/04/13 08:37:18;;;;;;;15.95;3.17;;;;;;;7.63;94.02;100019.56;4918088;29;20036;-82
2023/04/13 08:39:47;;;;;;;12.60;3.17;;;;;;;7.68;93.63;100015.91;4901549;29;20479;-81
2023/04/13 08:42:15;;;;;;;16.38;3.70;;;;;;;7.75;93.03;100022.78;4900202;29;20075;-81
2023/04/13 08:44:41;;;;;;;14.98;3.08;;;;;;;7.78;92.78;100019.19;4901084;29;20067;-80
2023/04/13 08:47:11;;;;;;;8.68;2.47;;;;;;;7.94;91.09;100036.41;4897599;29;20075;-82
2023/04/13 08:49:39;;;;;;;10.35;3.03;;;;;;;7.98;91.50;100035.41;4892548;29;20088;-80
2023/04/13 08:52:16;;;;;;;13.85;2.80;;;;;;;8.12;90.77;100034.22;4886777;29;20035;-81
2023/04/13 08:54:45;;;;;;;13.50;3.40;;;;;;;8.16;88.62;100046.44;4901010;29;20099;-83
2023/04/13 08:57:20;;;;;;;18.05;3.53;;;;;;;8.16;90.05;100052.56;4897568;29;20131;-80
2023/04/13 08:59:48;;;;;;;10.25;2.78;;;;;;;8.37;88.94;100047.66;4881289;29;20036;-82
2023/04/13 09:02:15;;;;;;;13.05;3.33;;;;;;;8.49;85.61;100052.66;4899121;29;20123;-82
2023/04/13 09:04:56;;;;;;;22.55;3.88;;;;;;;8.49;85.47;100050.00;4897537;29;20384;-82
2023/04/13 09:07:28;;;;;;;15.45;3.10;;;;;;;8.45;87.26;100051.00;4898570;29;20037;-82
2023/04/13 09:09:59;;;;;;;11.93;2.65;;;;;;;8.61;83.93;100067.31;4897601;29;20067;-82
2023/04/13 09:12:29;;;;;;;14.00;3.33;;;;;;;8.70;82.14;100060.91;4896723;29;20067;-82
2023/04/13 09:14:55;;;;;;;14.95;2.90;;;;;;;8.76;85.26;100066.03;4897690;29;20037;-82
2023/04/13 09:17:29;;;;;;;11.63;4.15;;;;;;;8.83;82.81;100068.47;4882222;29;20101;-81
2023/04/13 09:19:56;;;;;;;19.50;3.20;;;;;;;8.82;82.72;100079.06;4897692;29;20097;-83
2023/04/13 09:22:24;;;;;;;18.33;3.35;;;;;;;8.83;84.25;100080.81;4881672;29;20055;-82
2023/04/13 09:24:50;;;;;;;18.00;3.38;;;;;;;8.87;83.50;100085.06;4897593;29;20436;-82
2023/04/13 09:27:20;;;;;;;12.65;2.78;;;;;;;8.89;82.72;100085.06;4900778;29;20136;-81
2023/04/13 09:29:50;;;;;;;15.65;3.33;;;;;;;8.86;81.00;100093.91;4917854;29;20123;-82
2023/04/13 09:32:20;;;;;;;14.60;3.05;;;;;;;8.86;81.00;100093.91;4900605;29;20095;-82
2023/04/13 09:34:57;;;;;;;12.63;2.88;;;;;;;8.99;80.58;100105.88;4915580;29;20151;-82
2023/04/13 09:37:22;;;;;;;11.75;3.05;;;;;;;8.83;79.33;100101.94;4891984;29;20391;-82
2023/04/13 09:39:48;;;;;;;16.20;3.40;;;;;;;8.73;80.35;100113.59;4884680;29;20039;-83
2023/04/13 09:42:16;;;;;;;7.63;2.40;;;;;;;8.82;81.60;100118.66;4878002;29;20060;-82
2023/04/13 09:44:42;;;;;;;15.48;3.20;;;;;;;8.90;79.46;100123.72;4897947;29;20052;-84
2023/04/13 09:47:08;;;;;;;14.77;3.75;;;;;;;8.93;78.34;100119.25;4902539;29;20029;-81
2023/04/13 09:49:40;;;;;;;18.85;2.75;;;;;;;8.97;79.46;100128.81;4931790;29;20093;-80
2023/04/13 09:52:23;;;;;;;11.23;2.65;;;;;;;9.02;78.53;100140.13;4913212;29;20150;-87
2023/04/13 09:54:53;;;;;;;18.40;3.83;;;;;;;8.99;78.55;100137.56;4916146;29;20043;-83
2023/04/13 09:57:29;;;;;;;13.63;2.60;;;;;;;9.05;77.31;100147.13;4910697;29;20492;-85
2023/04/13 10:00:06;;;;;;;13.57;2.90;;;;;;;8.92;77.58;100162.41;4904002;29;20035;-84
2023/04/13 10:02:38;;;;;;;17.63;3.10;;;;;;;8.85;79.02;100173.16;4911663;29;20448;-84
2023/04/13 10:05:04;;;;;;;18.70;3.33;;;;;;;8.66;80.89;100186.81;4907495;29;20040;-83
2023/04/13 10:07:35;;;;;;;15.70;2.83;;;;;;;8.43;84.54;100181.22;4898456;29;20476;-82
2023/04/13 10:10:02;;;;;;;14.80;2.50;;;;;;;8.27;85.95;100181.53;4896194;29;20051;-82
2023/04/13 10:12:33;;;;;;;13.00;2.88;;;;;;;8.19;87.16;100196.69;4891878;29;20036;-82
2023/04/13 10:15:26;;;;;;;16.67;3.33;;;;;;;8.24;85.19;100204.50;4888075;29;20512;-83
2023/04/13 10:18:26;;;;;;;14.07;2.30;;;;;;;8.26;86.85;100200.03;4896842;29;20108;-81
2023/04/13 10:20:53;;;;;;;12.00;2.70;;;;;;;8.29;85.62;100207.91;4900386;29;20048;-81
2023/04/13 10:23:20;;;;;;;10.00;2.58;;;;;;;8.34;85.91;100214.81;4896126;29;20087;-84
2023/04/13 10:25:53;;;;;;;14.50;2.72;;;;;;;8.46;85.28;100210.19;4897112;29;20136;-82
2023/04/13 10:28:20;;;;;;;16.75;2.75;;;;;;;8.57;84.47;100219.56;4897093;29;20053;-82
2023/04/13 10:30:51;;;;;;;11.77;2.97;;;;;;;8.56;83.27;100215.22;4897511;29;20033;-81
2023/04/13 10:33:16;;;;;;;13.57;2.78;;;;;;;8.63;85.01;100221.22;4897242;29;20039;-82
2023/04/13 10:35:57;;;;;;;13.57;2.85;;;;;;;8.67;81.39;100227.28;4888945;29;20472;-83
2023/04/13 10:38:23;;;;;;;14.88;3.08;;;;;;;8.57;80.80;100231.91;4895785;29;20578;-83
2023/04/13 10:40:50;;;;;;;15.57;2.65;;;;;;;8.58;80.87;100233.63;4896088;29;20241;-83
2023/04/13 10:43:30;;;;;;;13.98;2.50;;;;;;;8.58;81.67;100237.16;4897119;29;20089;-83
2023/04/13 10:46:10;;;;;;;16.55;3.35;;;;;;;8.65;83.02;100235.22;4897141;29;20083;-83
2023/04/13 10:48:36;;;;;;;15.32;2.75;;;;;;;8.66;83.73;100244.91;4894317;29;20036;-83
2023/04/13 10:51:02;;;;;;;13.02;2.78;;;;;;;8.68;80.95;100243.09;4896911;29;20550;-81
2023/04/13 10:53:29;;;;;;;16.63;3.17;;;;;;;8.72;80.46;100251.78;4895489;29;20096;-83
2023/04/13 10:55:58;;;;;;;12.88;2.65;;;;;;;8.77;80.16;100255.19;4895644;29;20417;-83
2023/04/13 10:58:25;;;;;;;11.63;2.92;;;;;;;8.81;80.20;100264.78;4895421;29;20433;-83
2023/04/13 11:00:51;;;;;;;12.20;2.70;;;;;;;8.86;78.53;100264.69;4901243;29;20134;-83
2023/04/13 11:03:17;;;;;;;14.18;2.60;;;;;;;8.90;78.99;100271.59;4870109;29;20090;-84
2023/04/13 11:05:45;;;;;;;14.43;2.47;;;;;;;8.91;78.14;100274.22;4903621;29;20040;-84
2023/04/13 11:08:19;;;;;;;10.95;3.00;;;;;;;8.95;78.51;100273.25;4887996;29;20056;-83
2023/04/13 11:10:54;;;;;;;10.32;2.78;;;;;;;9.00;76.50;100287.22;4888193;29;20091;-83
2023/04/13 11:13:24;;;;;;;14.82;3.40;;;;;;;9.01;75.49;100290.72;4877069;29;20044;-83
2023/04/13 11:15:50;;;;;;;13.80;2.25;;;;;;;8.99;76.07;100282.81;4903730;29;20112;-83
2023/04/13 11:18:26;;;;;;;8.50;1.90;;;;;;;9.08;75.95;100297.59;4895553;29;20467;-84
2023/04/13 11:20:52;;;;;;;10.68;2.67;;;;;;;9.22;74.33;100286.66;4895098;29;20450;-84
2023/04/13 11:23:18;;;;;;;10.60;2.58;;;;;;;9.38;74.92;100293.28;4899078;29;20119;-84
2023/04/13 11:25:56;;;;;;;9.88;2.42;;;;;;;9.50;72.76;100299.19;4909237;29;20122;-84
2023/04/13 11:28:24;;;;;;;16.10;3.00;;;;;;;9.51;73.74;100285.06;4884854;29;20037;-84
2023/04/13 11:30:54;;;;;;;16.83;3.22;;;;;;;9.60;72.53;100293.59;4900342;29;20024;-84
2023/04/13 11:33:28;;;;;;;14.80;2.55;;;;;;;9.79;71.87;100285.16;4900700;29;20072;-83
2023/04/13 11:35:57;;;;;;;9.93;2.65;;;;;;;10.04;72.70;100280.06;4900621;29;20043;-82
2023/04/13 11:38:23;;;;;;;9.82;2.40;;;;;;;10.35;69.98;100288.00;4910482;29;20437;-82
2023/04/13 11:40:50;;;;;;;10.13;2.30;;;;;;;10.35;69.43;100289.78;4898078;29;20040;-84
2023/04/13 11:43:18;;;;;;;14.18;2.70;;;;;;;10.28;68.68;100283.81;4897317;29;20042;-83
2023/04/13 11:45:46;;;;;;;10.80;2.65;;;;;;;10.25;66.71;100291.81;4902295;29;20048;-83
2023/04/13 11:48:13;;;;;;;16.73;2.95;;;;;;;10.00;66.68;100296.94;4901939;29;20036;-83
2023/04/13 11:50:40;;;;;;;12.40;2.50;;;;;;;9.86;68.77;100289.38;4917967;29;20527;-82